Камери на живо
ЦПИ
02 9374270
ЦКИВП
02 9371284
ЦКИВП
02 9374762
Инфраред Sat24.com 1 часа назад.
Слънце и облаци Sat24.com 1 часа назад.
Радар - Сърбия и Румъния
Радар - Сърбия и Румъния на борба с градушките
Радар Истанбул(PPI)
Истанбул(PPI) Радар на борба с градушките
Партньори:
системи за видеонаблюдение
telenor
telesys
УЧИЛИЩЕ ЗА ПИЛОТИ ОЛИМПИЯ ЕР
Еър Ситис ЕООД
Авиационен Център Долна Баня
Камери на живо - sub stream
METAR for:LBSF (Sofia Intl, SO, BG)
Text:LBSF 302100Z AUTO 26006KT 240V310 3600 BR NCD M00/M01 Q1014 TEMPO 1500 BR
Conditions at:2100 UTC 30 Nov 2023
Temperature: 0.0°C ( 32°F)
Dewpoint: -1.0°C ( 30°F) [RH = 93%]
Pressure (altimeter):29.94 inches Hg (1014.0 mb)
Winds:from the W (260 degrees) at 7 MPH (6 knots; 3.1 m/s)
Visibility:2.24 sm (3.60 km)
Ceiling:at least 12,000 feet AGL
Clouds:sky clear below 12,000 feet AGL
Weather:BR (mist)
METAR for:LBPD (Plovdiv Arpt, PL, BG)
Text:LBPD 302100Z AUTO 20005KT 120V220 7000 NCD 01/01 Q1016
Conditions at:2100 UTC 30 Nov 2023
Temperature: 1.0°C ( 34°F)
Dewpoint: 1.0°C ( 34°F) [RH = 100%]
Pressure (altimeter):30.00 inches Hg (1016.0 mb)
Winds:from the SSW (200 degrees) at 6 MPH (5 knots; 2.6 m/s)
Visibility:4 sm (7 km)
Ceiling:at least 12,000 feet AGL
Clouds:sky clear below 12,000 feet AGL
METAR for:LBWN (Varna Intl, VA, BG)
Text:LBWN 302100Z AUTO 12005KT 9999 BKN021/// 07/05 Q1014 NOSIG
Conditions at:2100 UTC 30 Nov 2023
Temperature: 7.0°C ( 45°F)
Dewpoint: 5.0°C ( 41°F) [RH = 87%]
Pressure (altimeter):29.94 inches Hg (1014.0 mb)
Winds:from the ESE (120 degrees) at 6 MPH (5 knots; 2.6 m/s)
Visibility:6 or more sm (10+ km)
Ceiling:2100 feet AGL
Clouds:broken clouds at 2100 feet AGL
METAR for:LBBG (Burgas Arpt, BU, BG)
Text:LBBG 302100Z AUTO 30004KT 220V020 9000 BKN022/// 06/05 Q1015 NOSIG
Conditions at:2100 UTC 30 Nov 2023
Temperature: 6.0°C ( 43°F)
Dewpoint: 5.0°C ( 41°F) [RH = 93%]
Pressure (altimeter):29.97 inches Hg (1015.0 mb)
Winds:from the WNW (300 degrees) at 5 MPH (4 knots; 2.1 m/s)
Visibility:6 sm (9 km)
Ceiling:2200 feet AGL
Clouds:broken clouds at 2200 feet AGL
METAR for:LBGO (Gorna Orechovista Arpt, LO, BG)
Text:LBGO 302100Z AUTO 09008KT 9999 NCD 03/01 Q1012
Conditions at:2100 UTC 30 Nov 2023
Temperature: 3.0°C ( 37°F)
Dewpoint: 1.0°C ( 34°F) [RH = 87%]
Pressure (altimeter):29.88 inches Hg (1012.0 mb)
Winds:from the E (90 degrees) at 9 MPH (8 knots; 4.1 m/s)
Visibility:6 or more sm (10+ km)
Ceiling:at least 12,000 feet AGL
Clouds:sky clear below 12,000 feet AGL
METAR for:LBPG (Graf Ignatievo(AB), PL, BG)
Text:LBPG 302100Z 26004KT 9999 BKN200 01/01 Q1016
Conditions at:2100 UTC 30 Nov 2023
Temperature: 1.0°C ( 34°F)
Dewpoint: 1.0°C ( 34°F) [RH = 100%]
Pressure (altimeter):30.00 inches Hg (1016.0 mb)
Winds:from the W (260 degrees) at 5 MPH (4 knots; 2.1 m/s)
Visibility:6 or more sm (10+ km)
Ceiling:20000 feet AGL
Clouds:broken clouds at 20000 feet AGL
METAR for:LBIA (Bezmer(AB), BU, BG)
Text:LBIA 302100Z 26002KT 9999 BKN018 06/06 Q1015
Conditions at:2100 UTC 30 Nov 2023
Temperature: 6.0°C ( 43°F)
Dewpoint: 6.0°C ( 43°F) [RH = 100%]
Pressure (altimeter):29.97 inches Hg (1015.0 mb)
Winds:from the W (260 degrees) at 2 MPH (2 knots; 1.0 m/s)
Visibility:6 or more sm (10+ km)
Ceiling:1800 feet AGL
Clouds:broken clouds at 1800 feet AGL